Bookmark and Share
Track history (hours):
 

Evolution

Last reported at 2013-Nov-01 12:31 UTC. Time now 2014-Apr-16 10:42 UTC.
Position N 43°20' E 004°33'.
Warning: this ship's position is months out of date.

Type: Sailing vessel. MMSI: 235091936.

NotesDate/timePositionNaut miles runAvg speedWind from/ knotsBaromVisibWave heightAir tempDewpointWater temp
2013-Nov-01 12:31N 43°20' E 004°33'7 7.4
2013-Nov-01 11:33N 43°19' E 004°43'8 7.6
2013-Nov-01 10:33N 43°18' E 004°54'6 6.4
2013-Nov-01 09:33N 43°19' E 005°02'11 7.4
2013-Nov-01 08:03N 43°18' E 005°18'1 2.0
2013-Nov-01 07:32N 43°17' E 005°18'24 1.3
2013-Oct-31 12:33N 43°04' E 005°46'7 6.7
2013-Oct-31 11:33N 43°02' E 005°55'6 5.7
2013-Oct-31 10:33N 43°01' E 006°03'6 6.2
2013-Oct-31 09:33N 43°01' E 006°11'1 0.0
2013-Oct-30 16:30N 43°00' E 006°12'4 4.7
2013-Oct-30 15:33N 43°04' E 006°15'2 1.6
2013-Oct-30 14:33N 43°06' E 006°15'5 4.7
2013-Oct-30 13:32N 43°01' E 006°14'0 0.3
2013-Oct-30 12:31N 43°01' E 006°13'0 0.0
2013-Oct-30 11:31N 43°01' E 006°13'1 1.0
2013-Oct-30 10:33N 43°01' E 006°12'1 1.1
2013-Oct-30 09:32N 43°00' E 006°12'0 0.0
2013-Oct-28 16:31N 43°00' E 006°12'0 0.0
2013-Oct-28 15:33N 43°00' E 006°12'0 0.0
2013-Oct-28 14:32N 43°00' E 006°12'0 0.0
2013-Oct-28 13:32N 43°00' E 006°12'0 0.0
2013-Oct-28 12:32N 43°00' E 006°12'0 0.0
2013-Oct-28 11:29N 43°00' E 006°12'0 0.0
2013-Oct-27 16:31N 43°00' E 006°12'2 1.9
2013-Oct-27 15:33N 43°01' E 006°09'5 5.4
2013-Oct-27 14:33N 43°03' E 006°03'3 2.5
2013-Oct-27 13:32N 43°05' E 006°01'0 0.0
2013-Oct-27 12:32N 43°05' E 006°01'0 0.0
2013-Oct-27 11:32N 43°05' E 006°01'0 0.0
2013-Oct-27 10:32N 43°05' E 006°01'0 0.0
2013-Oct-27 09:32N 43°05' E 006°01'0 0.0
2013-Oct-27 05:16N 43°05' E 006°01'0 0.0
2013-Oct-27 04:31N 43°05' E 006°01'0 0.0
2013-Oct-27 03:31N 43°05' E 006°01'0 0.0
2013-Oct-27 02:34N 43°05' E 006°01'0 0.0
2013-Oct-27 01:31N 43°05' E 006°01'2 2.3
2013-Oct-27 00:34N 43°03' E 006°00'7 7.3
2013-Oct-26 23:34N 42°56' E 005°57'8 7.7
2013-Oct-26 22:33N 42°48' E 005°56'6 6.1
2013-Oct-26 21:33N 42°43' E 005°53'6 4.9
2013-Oct-26 20:15N 42°37' E 005°48'4 6.4
2013-Oct-26 19:33N 42°34' E 005°44'203 7.7
2013-Oct-25 17:18N 39°60' E 002°48'4 5.7
2013-Oct-25 16:33N 39°56' E 002°45'7 7.4
2013-Oct-25 15:33N 39°51' E 002°38'6 5.7
2013-Oct-25 14:28N 39°46' E 002°33'  

Dump ship's entire track history

sailing weather and tide predictions

Evolution — 2FKB6 — position and weather